sensor_id;sensor_type;location;lat;lon;timestamp;temperature;humidity
65038;DHT22;51605;47.040;15.294;2022-08-21T00:02:21;24.80;48.30
65038;DHT22;51605;47.040;15.294;2022-08-21T00:04:48;24.80;48.30
65038;DHT22;51605;47.040;15.294;2022-08-21T00:07:14;24.80;48.30
65038;DHT22;51605;47.040;15.294;2022-08-21T00:09:40;24.80;48.30
65038;DHT22;51605;47.040;15.294;2022-08-21T00:12:06;24.80;48.30
65038;DHT22;51605;47.040;15.294;2022-08-21T00:14:32;24.80;48.30
65038;DHT22;51605;47.040;15.294;2022-08-21T00:16:58;24.80;48.30
65038;DHT22;51605;47.040;15.294;2022-08-21T00:19:24;24.80;48.40
65038;DHT22;51605;47.040;15.294;2022-08-21T00:21:51;24.80;48.30
65038;DHT22;51605;47.040;15.294;2022-08-21T00:24:18;24.80;48.40
65038;DHT22;51605;47.040;15.294;2022-08-21T00:26:43;24.80;48.30
65038;DHT22;51605;47.040;15.294;2022-08-21T00:29:09;24.80;48.40
65038;DHT22;51605;47.040;15.294;2022-08-21T00:31:35;24.80;48.50
65038;DHT22;51605;47.040;15.294;2022-08-21T00:34:01;24.80;48.40
65038;DHT22;51605;47.040;15.294;2022-08-21T00:36:28;24.80;48.40
65038;DHT22;51605;47.040;15.294;2022-08-21T00:38:54;24.80;48.40
65038;DHT22;51605;47.040;15.294;2022-08-21T00:41:19;24.80;48.50
65038;DHT22;51605;47.040;15.294;2022-08-21T00:43:45;24.80;48.50
65038;DHT22;51605;47.040;15.294;2022-08-21T00:46:11;24.80;48.40
65038;DHT22;51605;47.040;15.294;2022-08-21T00:48:36;24.80;48.40
65038;DHT22;51605;47.040;15.294;2022-08-21T00:51:15;24.80;48.40
65038;DHT22;51605;47.040;15.294;2022-08-21T00:53:50;24.80;48.50
65038;DHT22;51605;47.040;15.294;2022-08-21T00:56:18;24.80;48.50
65038;DHT22;51605;47.040;15.294;2022-08-21T00:58:45;24.80;48.50
65038;DHT22;51605;47.040;15.294;2022-08-21T01:01:11;24.80;48.50
65038;DHT22;51605;47.040;15.294;2022-08-21T01:03:37;24.80;48.50
65038;DHT22;51605;47.040;15.294;2022-08-21T01:06:04;24.80;48.50
65038;DHT22;51605;47.040;15.294;2022-08-21T01:08:30;24.80;48.40
65038;DHT22;51605;47.040;15.294;2022-08-21T01:10:56;24.80;48.50
65038;DHT22;51605;47.040;15.294;2022-08-21T01:13:23;24.80;48.50
65038;DHT22;51605;47.040;15.294;2022-08-21T01:15:51;24.80;48.50
65038;DHT22;51605;47.040;15.294;2022-08-21T01:18:19;24.80;48.60
65038;DHT22;51605;47.040;15.294;2022-08-21T01:23:30;24.80;48.60
65038;DHT22;51605;47.040;15.294;2022-08-21T01:25:56;24.80;48.50
65038;DHT22;51605;47.040;15.294;2022-08-21T01:28:23;24.80;48.60
65038;DHT22;51605;47.040;15.294;2022-08-21T01:30:51;24.80;48.60
65038;DHT22;51605;47.040;15.294;2022-08-21T01:33:22;24.80;48.60
65038;DHT22;51605;47.040;15.294;2022-08-21T01:35:48;24.80;48.60
65038;DHT22;51605;47.040;15.294;2022-08-21T01:38:15;24.80;48.70
65038;DHT22;51605;47.040;15.294;2022-08-21T01:40:40;24.80;48.70
65038;DHT22;51605;47.040;15.294;2022-08-21T01:43:06;24.80;48.70
65038;DHT22;51605;47.040;15.294;2022-08-21T01:45:32;24.80;48.70
65038;DHT22;51605;47.040;15.294;2022-08-21T01:47:57;24.80;48.70
65038;DHT22;51605;47.040;15.294;2022-08-21T01:50:23;24.80;48.70
65038;DHT22;51605;47.040;15.294;2022-08-21T01:52:49;24.80;48.70
65038;DHT22;51605;47.040;15.294;2022-08-21T01:55:17;24.80;49.20
65038;DHT22;51605;47.040;15.294;2022-08-21T01:57:44;24.80;48.80
65038;DHT22;51605;47.040;15.294;2022-08-21T02:00:10;24.80;48.80
65038;DHT22;51605;47.040;15.294;2022-08-21T02:02:38;24.80;48.70
65038;DHT22;51605;47.040;15.294;2022-08-21T02:05:05;24.80;48.50
65038;DHT22;51605;47.040;15.294;2022-08-21T02:07:56;24.80;48.70
65038;DHT22;51605;47.040;15.294;2022-08-21T02:10:27;24.80;48.70
65038;DHT22;51605;47.040;15.294;2022-08-21T02:12:55;24.80;48.70
65038;DHT22;51605;47.040;15.294;2022-08-21T02:15:20;24.80;48.80
65038;DHT22;51605;47.040;15.294;2022-08-21T02:17:49;24.80;48.80
65038;DHT22;51605;47.040;15.294;2022-08-21T02:20:23;24.80;48.60
65038;DHT22;51605;47.040;15.294;2022-08-21T02:22:49;24.80;48.70
65038;DHT22;51605;47.040;15.294;2022-08-21T02:25:15;24.80;48.80
65038;DHT22;51605;47.040;15.294;2022-08-21T02:27:42;24.80;48.90
65038;DHT22;51605;47.040;15.294;2022-08-21T02:30:15;24.80;48.90
65038;DHT22;51605;47.040;15.294;2022-08-21T02:32:41;24.80;49.80
65038;DHT22;51605;47.040;15.294;2022-08-21T02:35:08;24.80;48.80
65038;DHT22;51605;47.040;15.294;2022-08-21T02:37:42;24.80;48.80
65038;DHT22;51605;47.040;15.294;2022-08-21T02:40:09;24.80;48.80
65038;DHT22;51605;47.040;15.294;2022-08-21T02:42:37;24.80;48.90
65038;DHT22;51605;47.040;15.294;2022-08-21T02:45:04;24.80;48.90
65038;DHT22;51605;47.040;15.294;2022-08-21T02:47:30;24.80;48.90
65038;DHT22;51605;47.040;15.294;2022-08-21T02:49:56;24.80;48.90
65038;DHT22;51605;47.040;15.294;2022-08-21T02:52:21;24.80;48.90
65038;DHT22;51605;47.040;15.294;2022-08-21T02:54:48;24.80;48.90
65038;DHT22;51605;47.040;15.294;2022-08-21T02:57:13;24.80;48.90
65038;DHT22;51605;47.040;15.294;2022-08-21T02:59:39;24.80;48.90
65038;DHT22;51605;47.040;15.294;2022-08-21T03:02:06;24.80;48.90
65038;DHT22;51605;47.040;15.294;2022-08-21T03:04:31;24.80;48.90
65038;DHT22;51605;47.040;15.294;2022-08-21T03:06:57;24.80;48.90
65038;DHT22;51605;47.040;15.294;2022-08-21T03:09:23;24.80;48.90
65038;DHT22;51605;47.040;15.294;2022-08-21T03:11:50;24.80;48.90
65038;DHT22;51605;47.040;15.294;2022-08-21T03:14:17;24.80;48.80
65038;DHT22;51605;47.040;15.294;2022-08-21T03:16:43;24.80;48.90
65038;DHT22;51605;47.040;15.294;2022-08-21T03:19:09;24.80;48.90
65038;DHT22;51605;47.040;15.294;2022-08-21T03:21:35;24.70;49.00
65038;DHT22;51605;47.040;15.294;2022-08-21T03:24:00;24.80;49.00
65038;DHT22;51605;47.040;15.294;2022-08-21T03:26:26;24.80;49.00
65038;DHT22;51605;47.040;15.294;2022-08-21T03:28:52;24.70;49.00
65038;DHT22;51605;47.040;15.294;2022-08-21T03:31:18;24.80;49.00
65038;DHT22;51605;47.040;15.294;2022-08-21T03:33:44;24.80;49.00
65038;DHT22;51605;47.040;15.294;2022-08-21T03:36:10;24.80;49.00
65038;DHT22;51605;47.040;15.294;2022-08-21T03:38:37;24.80;49.00
65038;DHT22;51605;47.040;15.294;2022-08-21T03:41:06;24.80;49.00
65038;DHT22;51605;47.040;15.294;2022-08-21T03:43:32;24.80;49.00
65038;DHT22;51605;47.040;15.294;2022-08-21T03:46:00;24.80;49.00
65038;DHT22;51605;47.040;15.294;2022-08-21T03:48:26;24.80;49.10
65038;DHT22;51605;47.040;15.294;2022-08-21T03:50:52;24.80;49.10
65038;DHT22;51605;47.040;15.294;2022-08-21T03:53:17;24.80;49.10
65038;DHT22;51605;47.040;15.294;2022-08-21T03:55:45;24.80;49.10
65038;DHT22;51605;47.040;15.294;2022-08-21T03:58:11;24.80;49.10
65038;DHT22;51605;47.040;15.294;2022-08-21T04:00:37;24.80;49.10
65038;DHT22;51605;47.040;15.294;2022-08-21T04:03:03;24.70;49.00
65038;DHT22;51605;47.040;15.294;2022-08-21T04:05:29;24.80;49.10
65038;DHT22;51605;47.040;15.294;2022-08-21T04:08:02;24.80;49.10
65038;DHT22;51605;47.040;15.294;2022-08-21T04:10:31;24.80;49.20
65038;DHT22;51605;47.040;15.294;2022-08-21T04:12:57;24.80;49.10
65038;DHT22;51605;47.040;15.294;2022-08-21T04:15:24;24.80;49.20
65038;DHT22;51605;47.040;15.294;2022-08-21T04:17:50;24.80;49.20
65038;DHT22;51605;47.040;15.294;2022-08-21T04:20:20;24.80;49.20
65038;DHT22;51605;47.040;15.294;2022-08-21T04:22:47;24.80;49.20
65038;DHT22;51605;47.040;15.294;2022-08-21T04:25:14;24.70;49.10
65038;DHT22;51605;47.040;15.294;2022-08-21T04:27:41;24.70;49.10
65038;DHT22;51605;47.040;15.294;2022-08-21T04:30:08;24.70;49.20
65038;DHT22;51605;47.040;15.294;2022-08-21T04:32:35;24.80;49.20
65038;DHT22;51605;47.040;15.294;2022-08-21T04:35:02;24.80;49.10
65038;DHT22;51605;47.040;15.294;2022-08-21T04:37:29;24.80;49.20
65038;DHT22;51605;47.040;15.294;2022-08-21T04:39:55;24.80;49.00
65038;DHT22;51605;47.040;15.294;2022-08-21T04:42:24;24.80;49.10
65038;DHT22;51605;47.040;15.294;2022-08-21T04:44:50;24.80;49.10
65038;DHT22;51605;47.040;15.294;2022-08-21T04:47:16;24.80;49.20
65038;DHT22;51605;47.040;15.294;2022-08-21T04:49:42;24.70;49.20
65038;DHT22;51605;47.040;15.294;2022-08-21T04:52:08;24.70;49.20
65038;DHT22;51605;47.040;15.294;2022-08-21T04:54:34;24.80;49.30
65038;DHT22;51605;47.040;15.294;2022-08-21T04:57:02;24.80;49.20
65038;DHT22;51605;47.040;15.294;2022-08-21T04:59:37;24.80;49.20
65038;DHT22;51605;47.040;15.294;2022-08-21T05:02:04;24.70;49.20
65038;DHT22;51605;47.040;15.294;2022-08-21T05:04:33;24.80;49.30
65038;DHT22;51605;47.040;15.294;2022-08-21T05:07:02;24.70;49.30
65038;DHT22;51605;47.040;15.294;2022-08-21T05:09:29;24.70;50.30
65038;DHT22;51605;47.040;15.294;2022-08-21T05:11:56;24.70;49.30
65038;DHT22;51605;47.040;15.294;2022-08-21T05:14:22;24.70;49.30
65038;DHT22;51605;47.040;15.294;2022-08-21T05:19:15;24.70;49.20
65038;DHT22;51605;47.040;15.294;2022-08-21T05:21:43;24.70;49.30
65038;DHT22;51605;47.040;15.294;2022-08-21T05:24:10;24.80;49.40
65038;DHT22;51605;47.040;15.294;2022-08-21T05:26:37;24.70;49.30
65038;DHT22;51605;47.040;15.294;2022-08-21T05:29:03;24.70;49.30
65038;DHT22;51605;47.040;15.294;2022-08-21T05:31:29;24.80;49.20
65038;DHT22;51605;47.040;15.294;2022-08-21T05:33:55;24.70;49.40
65038;DHT22;51605;47.040;15.294;2022-08-21T05:36:21;24.70;49.30
65038;DHT22;51605;47.040;15.294;2022-08-21T05:38:48;24.70;49.40
65038;DHT22;51605;47.040;15.294;2022-08-21T05:41:13;24.70;49.40
65038;DHT22;51605;47.040;15.294;2022-08-21T05:43:39;24.70;49.40
65038;DHT22;51605;47.040;15.294;2022-08-21T05:46:07;24.70;49.40
65038;DHT22;51605;47.040;15.294;2022-08-21T05:48:34;24.70;49.40
65038;DHT22;51605;47.040;15.294;2022-08-21T05:51:09;24.70;49.30
65038;DHT22;51605;47.040;15.294;2022-08-21T05:53:35;24.70;49.40
65038;DHT22;51605;47.040;15.294;2022-08-21T05:56:02;24.70;49.40
65038;DHT22;51605;47.040;15.294;2022-08-21T05:58:30;24.70;49.40
65038;DHT22;51605;47.040;15.294;2022-08-21T06:00:56;24.70;49.40
65038;DHT22;51605;47.040;15.294;2022-08-21T06:03:27;24.70;49.40
65038;DHT22;51605;47.040;15.294;2022-08-21T06:05:53;24.70;49.30
65038;DHT22;51605;47.040;15.294;2022-08-21T06:08:20;24.70;49.40
65038;DHT22;51605;47.040;15.294;2022-08-21T06:10:47;24.70;49.40
65038;DHT22;51605;47.040;15.294;2022-08-21T06:13:14;24.70;49.40
65038;DHT22;51605;47.040;15.294;2022-08-21T06:15:41;24.70;49.30
65038;DHT22;51605;47.040;15.294;2022-08-21T06:18:07;24.70;49.30
65038;DHT22;51605;47.040;15.294;2022-08-21T06:20:33;24.80;49.40
65038;DHT22;51605;47.040;15.294;2022-08-21T06:22:59;24.70;49.30
65038;DHT22;51605;47.040;15.294;2022-08-21T06:25:25;24.80;49.30
65038;DHT22;51605;47.040;15.294;2022-08-21T06:27:52;24.70;49.30
65038;DHT22;51605;47.040;15.294;2022-08-21T06:30:18;24.80;49.30
65038;DHT22;51605;47.040;15.294;2022-08-21T06:32:44;24.80;49.30
65038;DHT22;51605;47.040;15.294;2022-08-21T06:35:10;24.80;49.30
65038;DHT22;51605;47.040;15.294;2022-08-21T06:37:36;24.70;49.20
65038;DHT22;51605;47.040;15.294;2022-08-21T06:40:04;24.80;49.30
65038;DHT22;51605;47.040;15.294;2022-08-21T06:42:29;24.70;49.30
65038;DHT22;51605;47.040;15.294;2022-08-21T06:44:56;24.80;49.30
65038;DHT22;51605;47.040;15.294;2022-08-21T06:47:22;24.70;49.30
65038;DHT22;51605;47.040;15.294;2022-08-21T06:49:48;24.70;49.20
65038;DHT22;51605;47.040;15.294;2022-08-21T06:52:14;24.70;49.20
65038;DHT22;51605;47.040;15.294;2022-08-21T06:54:40;24.70;49.30
65038;DHT22;51605;47.040;15.294;2022-08-21T06:57:06;24.70;49.30
65038;DHT22;51605;47.040;15.294;2022-08-21T06:59:32;24.70;49.30
65038;DHT22;51605;47.040;15.294;2022-08-21T07:01:58;24.80;49.30
65038;DHT22;51605;47.040;15.294;2022-08-21T07:04:24;24.70;49.30
65038;DHT22;51605;47.040;15.294;2022-08-21T07:06:50;24.70;49.40
65038;DHT22;51605;47.040;15.294;2022-08-21T07:09:16;24.70;49.30
65038;DHT22;51605;47.040;15.294;2022-08-21T07:11:42;24.70;49.30
65038;DHT22;51605;47.040;15.294;2022-08-21T07:14:08;24.70;49.30
65038;DHT22;51605;47.040;15.294;2022-08-21T07:16:34;24.80;49.30
65038;DHT22;51605;47.040;15.294;2022-08-21T07:19:00;24.70;49.20
65038;DHT22;51605;47.040;15.294;2022-08-21T07:21:26;24.80;49.40
65038;DHT22;51605;47.040;15.294;2022-08-21T07:23:52;24.80;49.30
65038;DHT22;51605;47.040;15.294;2022-08-21T07:26:21;24.80;49.30
65038;DHT22;51605;47.040;15.294;2022-08-21T07:28:50;24.80;49.30
65038;DHT22;51605;47.040;15.294;2022-08-21T07:31:18;24.70;49.20
65038;DHT22;51605;47.040;15.294;2022-08-21T07:33:44;24.70;49.20
65038;DHT22;51605;47.040;15.294;2022-08-21T07:36:10;24.70;49.20
65038;DHT22;51605;47.040;15.294;2022-08-21T07:38:36;24.70;49.40
65038;DHT22;51605;47.040;15.294;2022-08-21T07:41:12;24.70;49.30
65038;DHT22;51605;47.040;15.294;2022-08-21T07:43:39;24.70;49.40
65038;DHT22;51605;47.040;15.294;2022-08-21T07:46:05;24.70;50.30
65038;DHT22;51605;47.040;15.294;2022-08-21T07:48:30;24.70;49.40
65038;DHT22;51605;47.040;15.294;2022-08-21T07:50:56;24.70;49.40
65038;DHT22;51605;47.040;15.294;2022-08-21T07:53:23;24.70;49.40
65038;DHT22;51605;47.040;15.294;2022-08-21T07:55:48;24.70;49.50
65038;DHT22;51605;47.040;15.294;2022-08-21T07:58:14;24.70;49.40
65038;DHT22;51605;47.040;15.294;2022-08-21T08:00:40;24.70;49.40
65038;DHT22;51605;47.040;15.294;2022-08-21T08:03:06;24.80;49.40
65038;DHT22;51605;47.040;15.294;2022-08-21T08:05:32;24.80;50.20
65038;DHT22;51605;47.040;15.294;2022-08-21T08:07:58;24.80;49.80
65038;DHT22;51605;47.040;15.294;2022-08-21T08:10:24;24.70;49.80
65038;DHT22;51605;47.040;15.294;2022-08-21T08:12:51;24.80;49.90
65038;DHT22;51605;47.040;15.294;2022-08-21T08:15:22;24.70;49.80
65038;DHT22;51605;47.040;15.294;2022-08-21T08:17:48;24.80;49.80
65038;DHT22;51605;47.040;15.294;2022-08-21T08:20:15;24.70;49.80
65038;DHT22;51605;47.040;15.294;2022-08-21T08:22:41;24.70;49.80
65038;DHT22;51605;47.040;15.294;2022-08-21T08:25:09;24.70;49.80
65038;DHT22;51605;47.040;15.294;2022-08-21T08:27:36;24.70;49.80
65038;DHT22;51605;47.040;15.294;2022-08-21T08:30:03;24.70;49.80
65038;DHT22;51605;47.040;15.294;2022-08-21T08:32:29;24.70;49.80
65038;DHT22;51605;47.040;15.294;2022-08-21T08:34:55;24.70;49.70
65038;DHT22;51605;47.040;15.294;2022-08-21T08:37:21;24.70;49.80
65038;DHT22;51605;47.040;15.294;2022-08-21T08:39:47;24.70;49.80
65038;DHT22;51605;47.040;15.294;2022-08-21T08:42:14;24.70;49.80
65038;DHT22;51605;47.040;15.294;2022-08-21T08:44:44;24.70;49.70
65038;DHT22;51605;47.040;15.294;2022-08-21T08:47:13;24.70;49.70
65038;DHT22;51605;47.040;15.294;2022-08-21T08:49:54;24.70;49.70
65038;DHT22;51605;47.040;15.294;2022-08-21T08:52:30;24.70;49.70
65038;DHT22;51605;47.040;15.294;2022-08-21T08:55:06;24.70;49.70
65038;DHT22;51605;47.040;15.294;2022-08-21T08:57:33;24.70;49.70
65038;DHT22;51605;47.040;15.294;2022-08-21T09:00:09;24.70;49.80
65038;DHT22;51605;47.040;15.294;2022-08-21T09:02:38;24.70;49.70
65038;DHT22;51605;47.040;15.294;2022-08-21T09:05:05;24.70;50.60
65038;DHT22;51605;47.040;15.294;2022-08-21T09:13:13;24.70;49.70
65038;DHT22;51605;47.040;15.294;2022-08-21T09:21:36;24.70;49.60
65038;DHT22;51605;47.040;15.294;2022-08-21T09:29:31;24.70;49.70
65038;DHT22;51605;47.040;15.294;2022-08-21T09:31:58;24.70;49.60
65038;DHT22;51605;47.040;15.294;2022-08-21T09:34:29;24.70;49.60
65038;DHT22;51605;47.040;15.294;2022-08-21T09:36:56;24.70;49.70
65038;DHT22;51605;47.040;15.294;2022-08-21T09:39:41;24.70;49.70
65038;DHT22;51605;47.040;15.294;2022-08-21T09:42:08;24.70;49.80
65038;DHT22;51605;47.040;15.294;2022-08-21T09:44:40;24.70;49.70
65038;DHT22;51605;47.040;15.294;2022-08-21T09:47:10;24.70;49.80
65038;DHT22;51605;47.040;15.294;2022-08-21T09:49:40;24.70;49.70
65038;DHT22;51605;47.040;15.294;2022-08-21T09:52:17;24.70;49.80
65038;DHT22;51605;47.040;15.294;2022-08-21T09:54:45;24.70;49.80
65038;DHT22;51605;47.040;15.294;2022-08-21T09:57:19;24.70;49.80
65038;DHT22;51605;47.040;15.294;2022-08-21T10:00:25;24.70;49.60
65038;DHT22;51605;47.040;15.294;2022-08-21T10:02:52;24.70;49.60
65038;DHT22;51605;47.040;15.294;2022-08-21T10:05:19;24.70;49.60
65038;DHT22;51605;47.040;15.294;2022-08-21T10:07:46;24.70;50.60
65038;DHT22;51605;47.040;15.294;2022-08-21T10:10:18;24.70;49.80
65038;DHT22;51605;47.040;15.294;2022-08-21T10:18:26;24.70;49.80
65038;DHT22;51605;47.040;15.294;2022-08-21T10:21:02;24.70;49.80
65038;DHT22;51605;47.040;15.294;2022-08-21T10:29:01;24.70;49.80
65038;DHT22;51605;47.040;15.294;2022-08-21T10:34:24;24.70;49.80
65038;DHT22;51605;47.040;15.294;2022-08-21T10:39:35;24.70;49.80
65038;DHT22;51605;47.040;15.294;2022-08-21T10:44:57;24.70;49.80
65038;DHT22;51605;47.040;15.294;2022-08-21T10:47:31;24.70;49.80
65038;DHT22;51605;47.040;15.294;2022-08-21T10:55:16;24.70;49.80
65038;DHT22;51605;47.040;15.294;2022-08-21T10:57:57;24.60;49.80
65038;DHT22;51605;47.040;15.294;2022-08-21T11:00:36;24.60;49.80
65038;DHT22;51605;47.040;15.294;2022-08-21T11:03:17;24.70;49.90
65038;DHT22;51605;47.040;15.294;2022-08-21T11:05:57;24.70;49.80
65038;DHT22;51605;47.040;15.294;2022-08-21T11:08:45;24.70;49.80
65038;DHT22;51605;47.040;15.294;2022-08-21T11:11:25;24.70;49.80
65038;DHT22;51605;47.040;15.294;2022-08-21T11:14:11;24.70;49.80
65038;DHT22;51605;47.040;15.294;2022-08-21T11:16:49;24.70;49.80
65038;DHT22;51605;47.040;15.294;2022-08-21T11:19:25;24.70;49.80
65038;DHT22;51605;47.040;15.294;2022-08-21T11:24:42;24.70;49.80
65038;DHT22;51605;47.040;15.294;2022-08-21T11:29:56;24.70;49.80
65038;DHT22;51605;47.040;15.294;2022-08-21T11:35:35;24.70;50.00
65038;DHT22;51605;47.040;15.294;2022-08-21T11:38:51;24.70;49.80
65038;DHT22;51605;47.040;15.294;2022-08-21T11:43:47;24.70;49.80
65038;DHT22;51605;47.040;15.294;2022-08-21T11:51:39;24.70;49.80
65038;DHT22;51605;47.040;15.294;2022-08-21T11:56:45;24.70;49.90
65038;DHT22;51605;47.040;15.294;2022-08-21T11:59:23;24.70;49.80
65038;DHT22;51605;47.040;15.294;2022-08-21T12:01:51;24.70;49.60
65038;DHT22;51605;47.040;15.294;2022-08-21T12:04:32;24.70;49.60
65038;DHT22;51605;47.040;15.294;2022-08-21T12:07:17;24.70;49.80
65038;DHT22;51605;47.040;15.294;2022-08-21T12:09:55;24.70;49.80
65038;DHT22;51605;47.040;15.294;2022-08-21T12:12:25;24.70;49.90
65038;DHT22;51605;47.040;15.294;2022-08-21T12:17:37;24.70;50.00
65038;DHT22;51605;47.040;15.294;2022-08-21T12:20:33;24.60;49.90
65038;DHT22;51605;47.040;15.294;2022-08-21T12:28:34;24.60;50.00
65038;DHT22;51605;47.040;15.294;2022-08-21T12:31:00;24.70;50.00
65038;DHT22;51605;47.040;15.294;2022-08-21T12:33:33;24.70;50.00
65038;DHT22;51605;47.040;15.294;2022-08-21T12:36:13;24.70;50.00
65038;DHT22;51605;47.040;15.294;2022-08-21T12:39:00;24.60;50.00
65038;DHT22;51605;47.040;15.294;2022-08-21T12:41:37;24.60;50.00
65038;DHT22;51605;47.040;15.294;2022-08-21T12:44:09;24.60;50.00
65038;DHT22;51605;47.040;15.294;2022-08-21T12:50:26;24.60;50.00
65038;DHT22;51605;47.040;15.294;2022-08-21T12:53:19;24.70;50.00
65038;DHT22;51605;47.040;15.294;2022-08-21T12:55:40;24.70;50.00
65038;DHT22;51605;47.040;15.294;2022-08-21T12:58:06;24.70;50.00
65038;DHT22;51605;47.040;15.294;2022-08-21T13:00:32;24.70;50.00
65038;DHT22;51605;47.040;15.294;2022-08-21T13:02:58;24.70;50.00
65038;DHT22;51605;47.040;15.294;2022-08-21T13:05:34;24.70;50.00
65038;DHT22;51605;47.040;15.294;2022-08-21T13:08:07;24.60;50.10
65038;DHT22;51605;47.040;15.294;2022-08-21T13:10:34;24.60;50.10
65038;DHT22;51605;47.040;15.294;2022-08-21T13:13:06;24.70;50.10
65038;DHT22;51605;47.040;15.294;2022-08-21T13:15:36;24.70;50.00
65038;DHT22;51605;47.040;15.294;2022-08-21T13:18:04;24.60;50.10
65038;DHT22;51605;47.040;15.294;2022-08-21T13:20:38;24.60;50.10
65038;DHT22;51605;47.040;15.294;2022-08-21T13:25:52;24.60;50.10
65038;DHT22;51605;47.040;15.294;2022-08-21T13:28:18;24.60;50.20
65038;DHT22;51605;47.040;15.294;2022-08-21T13:30:45;24.60;50.20
65038;DHT22;51605;47.040;15.294;2022-08-21T13:33:13;24.60;50.10
65038;DHT22;51605;47.040;15.294;2022-08-21T13:38:27;24.60;50.30
65038;DHT22;51605;47.040;15.294;2022-08-21T13:41:44;24.60;50.20
65038;DHT22;51605;47.040;15.294;2022-08-21T13:43:48;24.70;50.70
65038;DHT22;51605;47.040;15.294;2022-08-21T13:46:14;24.70;50.90
65038;DHT22;51605;47.040;15.294;2022-08-21T13:48:41;24.70;51.30
65038;DHT22;51605;47.040;15.294;2022-08-21T13:51:08;24.70;51.60
65038;DHT22;51605;47.040;15.294;2022-08-21T13:56:04;24.80;52.40
65038;DHT22;51605;47.040;15.294;2022-08-21T13:58:33;24.90;52.80
65038;DHT22;51605;47.040;15.294;2022-08-21T14:01:22;25.00;53.00
65038;DHT22;51605;47.040;15.294;2022-08-21T14:03:50;25.00;53.00
65038;DHT22;51605;47.040;15.294;2022-08-21T14:06:21;25.10;52.90
65038;DHT22;51605;47.040;15.294;2022-08-21T14:08:59;25.10;52.90
65038;DHT22;51605;47.040;15.294;2022-08-21T14:11:27;25.20;53.00
65038;DHT22;51605;47.040;15.294;2022-08-21T14:24:07;25.30;52.50
65038;DHT22;51605;47.040;15.294;2022-08-21T14:26:48;25.30;52.50
65038;DHT22;51605;47.040;15.294;2022-08-21T14:29:16;25.30;52.40
65038;DHT22;51605;47.040;15.294;2022-08-21T14:31:42;25.20;52.30
65038;DHT22;51605;47.040;15.294;2022-08-21T14:34:10;25.20;52.30
65038;DHT22;51605;47.040;15.294;2022-08-21T14:36:37;25.10;52.20
65038;DHT22;51605;47.040;15.294;2022-08-21T14:39:03;25.10;52.30
65038;DHT22;51605;47.040;15.294;2022-08-21T14:41:29;25.10;52.30
65038;DHT22;51605;47.040;15.294;2022-08-21T14:43:55;25.10;52.30
65038;DHT22;51605;47.040;15.294;2022-08-21T14:46:27;25.00;52.20
65038;DHT22;51605;47.040;15.294;2022-08-21T14:48:54;25.00;52.20
65038;DHT22;51605;47.040;15.294;2022-08-21T14:51:20;25.00;52.10
65038;DHT22;51605;47.040;15.294;2022-08-21T14:53:46;25.00;52.20
65038;DHT22;51605;47.040;15.294;2022-08-21T14:56:13;25.00;52.20
65038;DHT22;51605;47.040;15.294;2022-08-21T14:58:39;25.00;52.20
65038;DHT22;51605;47.040;15.294;2022-08-21T15:01:11;25.00;52.20
65038;DHT22;51605;47.040;15.294;2022-08-21T15:03:37;25.00;52.10
65038;DHT22;51605;47.040;15.294;2022-08-21T15:06:05;25.00;52.10
65038;DHT22;51605;47.040;15.294;2022-08-21T15:08:31;25.00;52.20
65038;DHT22;51605;47.040;15.294;2022-08-21T15:10:59;25.00;52.20
65038;DHT22;51605;47.040;15.294;2022-08-21T15:13:25;24.90;52.20
65038;DHT22;51605;47.040;15.294;2022-08-21T15:15:52;24.90;52.10
65038;DHT22;51605;47.040;15.294;2022-08-21T15:18:23;24.90;52.20
65038;DHT22;51605;47.040;15.294;2022-08-21T15:20:49;24.90;52.20
65038;DHT22;51605;47.040;15.294;2022-08-21T15:23:15;24.90;52.30
65038;DHT22;51605;47.040;15.294;2022-08-21T15:25:43;24.90;52.20
65038;DHT22;51605;47.040;15.294;2022-08-21T15:28:10;24.90;52.30
65038;DHT22;51605;47.040;15.294;2022-08-21T15:30:38;24.90;52.30
65038;DHT22;51605;47.040;15.294;2022-08-21T15:33:04;24.90;52.30
65038;DHT22;51605;47.040;15.294;2022-08-21T15:35:30;24.90;52.30
65038;DHT22;51605;47.040;15.294;2022-08-21T15:37:55;24.90;52.30
65038;DHT22;51605;47.040;15.294;2022-08-21T15:40:21;24.90;52.30
65038;DHT22;51605;47.040;15.294;2022-08-21T15:42:47;24.90;52.30
65038;DHT22;51605;47.040;15.294;2022-08-21T15:45:14;24.90;52.20
65038;DHT22;51605;47.040;15.294;2022-08-21T15:47:43;24.80;52.20
65038;DHT22;51605;47.040;15.294;2022-08-21T15:50:10;24.80;52.30
65038;DHT22;51605;47.040;15.294;2022-08-21T15:52:36;24.80;52.20
65038;DHT22;51605;47.040;15.294;2022-08-21T15:55:03;24.90;52.20
65038;DHT22;51605;47.040;15.294;2022-08-21T15:57:29;24.80;52.10
65038;DHT22;51605;47.040;15.294;2022-08-21T16:00:00;24.80;52.10
65038;DHT22;51605;47.040;15.294;2022-08-21T16:02:34;24.80;52.10
65038;DHT22;51605;47.040;15.294;2022-08-21T16:05:02;24.80;52.00
65038;DHT22;51605;47.040;15.294;2022-08-21T16:07:27;24.80;52.00
65038;DHT22;51605;47.040;15.294;2022-08-21T16:09:53;24.80;52.00
65038;DHT22;51605;47.040;15.294;2022-08-21T16:12:31;24.80;52.00
65038;DHT22;51605;47.040;15.294;2022-08-21T16:14:59;24.80;52.10
65038;DHT22;51605;47.040;15.294;2022-08-21T16:17:28;24.80;52.00
65038;DHT22;51605;47.040;15.294;2022-08-21T16:19:55;24.80;52.00
65038;DHT22;51605;47.040;15.294;2022-08-21T16:22:21;24.80;52.10
65038;DHT22;51605;47.040;15.294;2022-08-21T16:24:47;24.80;52.10
65038;DHT22;51605;47.040;15.294;2022-08-21T16:27:12;24.80;52.00
65038;DHT22;51605;47.040;15.294;2022-08-21T16:29:39;24.80;52.00
65038;DHT22;51605;47.040;15.294;2022-08-21T16:32:05;24.80;51.90
65038;DHT22;51605;47.040;15.294;2022-08-21T16:34:31;24.80;51.90
65038;DHT22;51605;47.040;15.294;2022-08-21T16:36:58;24.80;51.90
65038;DHT22;51605;47.040;15.294;2022-08-21T16:39:24;24.80;51.90
65038;DHT22;51605;47.040;15.294;2022-08-21T16:41:49;24.80;51.90
65038;DHT22;51605;47.040;15.294;2022-08-21T16:44:17;24.80;51.90
65038;DHT22;51605;47.040;15.294;2022-08-21T16:46:44;24.80;51.80
65038;DHT22;51605;47.040;15.294;2022-08-21T16:49:09;24.80;51.90
65038;DHT22;51605;47.040;15.294;2022-08-21T16:51:36;24.80;51.90
65038;DHT22;51605;47.040;15.294;2022-08-21T16:54:02;24.80;51.90
65038;DHT22;51605;47.040;15.294;2022-08-21T16:56:29;24.80;51.90
65038;DHT22;51605;47.040;15.294;2022-08-21T16:58:55;24.80;51.60
65038;DHT22;51605;47.040;15.294;2022-08-21T17:01:25;24.80;51.70